Time;durP1;ratioP1;P1;durP2;ratioP2;P2;SDS_P1;SDS_P2;PMS_P1;PMS_P2;Temp;Humidity;BMP_temperature;BMP_pressure;BME280_temperature;BME280_humidity;BME280_pressure;Samples;Min_cycle;Max_cycle;Signal;HPM_P1;HPM_P2
2023/02/10 00:02:14;;;;;;;20.88;11.43;;;;;;;;;;5084717;28;20028;-47
2023/02/10 00:04:40;;;;;;;19.60;10.50;;;;;;;;;;5075607;28;20036;-51
2023/02/10 00:07:07;;;;;;;19.60;11.65;;;;;;;;;;5071610;28;20531;-48
2023/02/10 00:09:33;;;;;;;20.33;11.63;;;;;;;;;;5077426;28;20461;-47
2023/02/10 00:11:59;;;;;;;17.58;11.13;;;;;;;;;;5068007;28;20021;-47
2023/02/10 00:14:25;;;;;;;19.42;11.35;;;;;;;;;;5067648;28;20032;-47
2023/02/10 00:16:52;;;;;;;19.75;10.98;;;;;;;;;;5068689;28;20529;-48
2023/02/10 00:19:19;;;;;;;18.63;10.65;;;;;;;;;;5085444;28;20491;-49
2023/02/10 00:21:45;;;;;;;21.08;11.88;;;;;;;;;;5088293;28;20024;-51
2023/02/10 00:24:11;;;;;;;23.65;12.02;;;;;;;;;;5087970;28;20540;-47
2023/02/10 00:26:37;;;;;;;21.42;11.70;;;;;;;;;;5088058;28;20093;-49
2023/02/10 00:29:03;;;;;;;20.13;10.90;;;;;;;;;;5087949;28;20035;-47
2023/02/10 00:31:30;;;;;;;19.92;10.98;;;;;;;;;;5088276;28;20030;-47
2023/02/10 00:33:56;;;;;;;19.38;10.50;;;;;;;;;;5087200;28;20032;-50
2023/02/10 00:36:24;;;;;;;19.58;10.13;;;;;;;;;;5088164;28;20477;-48
2023/02/10 00:38:50;;;;;;;19.23;10.50;;;;;;;;;;5088393;28;20044;-47
2023/02/10 00:41:17;;;;;;;26.00;13.48;;;;;;;;;;5087785;28;20026;-48
2023/02/10 00:43:44;;;;;;;22.40;12.50;;;;;;;;;;5087373;28;20036;-49
2023/02/10 00:46:11;;;;;;;23.60;12.07;;;;;;;;;;5087375;28;20027;-49
2023/02/10 00:48:38;;;;;;;22.13;12.30;;;;;;;;;;5087328;28;20157;-49
2023/02/10 00:51:04;;;;;;;19.90;10.18;;;;;;;;;;5087691;28;20399;-49
2023/02/10 00:53:30;;;;;;;20.50;11.35;;;;;;;;;;5087392;28;20475;-48
2023/02/10 00:55:56;;;;;;;19.50;11.23;;;;;;;;;;5087500;28;20050;-51
2023/02/10 00:58:22;;;;;;;17.65;9.98;;;;;;;;;;5088148;28;20596;-48
2023/02/10 01:00:49;;;;;;;21.42;12.02;;;;;;;;;;5088132;28;20024;-51
2023/02/10 01:03:15;;;;;;;22.20;13.23;;;;;;;;;;5087337;28;20028;-49
2023/02/10 01:05:41;;;;;;;24.27;13.38;;;;;;;;;;5087190;28;20107;-52
2023/02/10 06:11:54;;;;;;;30.30;14.35;;;;;;;;;;5085249;28;20430;-47
2023/02/10 06:14:20;;;;;;;30.05;15.27;;;;;;;;;;5089318;28;20028;-50
2023/02/10 06:16:47;;;;;;;30.73;14.65;;;;;;;;;;5089314;28;20615;-48
2023/02/10 06:19:13;;;;;;;32.75;15.02;;;;;;;;;;5089190;28;20020;-51
2023/02/10 06:21:39;;;;;;;26.27;14.52;;;;;;;;;;5089053;28;20077;-47
2023/02/10 06:24:05;;;;;;;31.10;14.00;;;;;;;;;;5088804;28;20036;-49
2023/02/10 06:26:31;;;;;;;28.42;13.75;;;;;;;;;;5088990;28;20032;-47
2023/02/10 06:28:57;;;;;;;26.40;13.15;;;;;;;;;;5088870;28;20043;-52
2023/02/10 06:31:25;;;;;;;26.20;13.30;;;;;;;;;;5089324;28;20032;-47
2023/02/10 06:33:51;;;;;;;31.65;15.13;;;;;;;;;;5089010;28;20032;-49
2023/02/10 06:36:17;;;;;;;29.73;14.20;;;;;;;;;;5088917;28;20043;-49
2023/02/10 06:38:43;;;;;;;31.25;14.35;;;;;;;;;;5088949;28;20062;-49
2023/02/10 06:41:09;;;;;;;25.70;12.95;;;;;;;;;;5088529;28;20035;-48
2023/02/10 06:43:35;;;;;;;26.23;13.70;;;;;;;;;;5088246;28;20024;-48
2023/02/10 06:46:01;;;;;;;24.35;13.20;;;;;;;;;;5088014;28;20495;-47
2023/02/10 06:48:27;;;;;;;24.65;13.52;;;;;;;;;;5082150;28;20690;-51
2023/02/10 06:50:53;;;;;;;26.27;14.05;;;;;;;;;;5088899;28;20035;-47
2023/02/10 06:53:20;;;;;;;26.77;13.57;;;;;;;;;;5088595;28;20027;-48
2023/02/10 06:55:46;;;;;;;23.50;13.32;;;;;;;;;;5088618;28;20028;-48
2023/02/10 06:58:12;;;;;;;25.05;13.55;;;;;;;;;;5088362;28;20499;-48
2023/02/10 07:00:38;;;;;;;23.52;13.57;;;;;;;;;;5088446;28;20047;-52
2023/02/10 07:03:05;;;;;;;26.15;14.13;;;;;;;;;;5087962;28;20056;-49
2023/02/10 07:05:31;;;;;;;26.08;14.32;;;;;;;;;;5088513;28;20044;-49
2023/02/10 07:07:59;;;;;;;25.88;13.65;;;;;;;;;;5088600;28;20024;-48
2023/02/10 07:10:25;;;;;;;25.73;13.88;;;;;;;;;;5088419;28;20052;-50
2023/02/10 07:12:51;;;;;;;27.30;14.05;;;;;;;;;;5088306;28;20084;-48
2023/02/10 07:15:18;;;;;;;26.75;14.63;;;;;;;;;;5091595;28;20035;-50
2023/02/10 07:17:45;;;;;;;27.27;14.27;;;;;;;;;;5092796;28;20028;-48
2023/02/10 07:20:11;;;;;;;26.50;14.68;;;;;;;;;;5092638;28;20036;-49
2023/02/10 07:22:37;;;;;;;27.58;15.10;;;;;;;;;;5091505;28;20028;-51
2023/02/10 07:25:04;;;;;;;30.35;16.02;;;;;;;;;;5092538;28;20020;-49
2023/02/10 07:27:30;;;;;;;32.13;16.42;;;;;;;;;;5092870;28;20398;-47
2023/02/10 07:29:56;;;;;;;29.60;15.98;;;;;;;;;;5092277;28;20032;-48
2023/02/10 07:32:22;;;;;;;29.80;15.57;;;;;;;;;;5092409;28;20476;-48
2023/02/10 07:34:49;;;;;;;29.80;15.82;;;;;;;;;;5091998;28;20526;-47
2023/02/10 07:37:15;;;;;;;30.25;16.55;;;;;;;;;;5092200;28;20020;-49
2023/02/10 07:39:41;;;;;;;31.00;15.73;;;;;;;;;;5073428;28;20399;-48
2023/02/10 07:42:07;;;;;;;25.25;14.98;;;;;;;;;;5092115;28;20048;-47
2023/02/10 07:44:33;;;;;;;26.90;14.55;;;;;;;;;;5085496;28;20032;-48
2023/02/10 07:46:59;;;;;;;28.67;14.32;;;;;;;;;;5072147;28;20028;-48
2023/02/10 07:49:28;;;;;;;28.10;15.35;;;;;;;;;;5087711;28;20107;-49
2023/02/10 07:51:54;;;;;;;26.80;15.43;;;;;;;;;;5091725;28;20044;-48
2023/02/10 07:54:20;;;;;;;29.25;16.13;;;;;;;;;;5092010;28;20116;-49
2023/02/10 07:56:46;;;;;;;32.75;17.13;;;;;;;;;;5091807;28;20031;-48
2023/02/10 07:59:12;;;;;;;33.97;18.63;;;;;;;;;;5091746;28;20031;-47
2023/02/10 08:01:42;;;;;;;30.67;17.83;;;;;;;;;;5091609;28;20506;-47
2023/02/10 08:04:09;;;;;;;32.67;18.55;;;;;;;;;;5090085;28;20024;-47
2023/02/10 08:06:35;;;;;;;29.17;16.63;;;;;;;;;;5082592;28;20020;-48
2023/02/10 08:09:01;;;;;;;32.47;16.83;;;;;;;;;;5072232;28;20483;-49
2023/02/10 08:11:27;;;;;;;28.30;15.93;;;;;;;;;;5075564;28;20020;-48
2023/02/10 08:13:53;;;;;;;28.73;15.77;;;;;;;;;;5087656;28;20032;-48
2023/02/10 08:16:19;;;;;;;27.02;16.27;;;;;;;;;;5085325;28;20044;-48
2023/02/10 08:18:45;;;;;;;29.17;16.73;;;;;;;;;;5084246;28;20032;-49
2023/02/10 08:21:11;;;;;;;28.10;16.20;;;;;;;;;;5091461;28;20544;-52
2023/02/10 08:23:37;;;;;;;26.83;15.30;;;;;;;;;;5083417;28;20450;-50
2023/02/10 08:26:10;;;;;;;29.48;17.23;;;;;;;;;;5089022;28;20417;-50
2023/02/10 08:28:37;;;;;;;26.60;14.80;;;;;;;;;;5086983;28;20060;-48
2023/02/10 08:31:04;;;;;;;26.75;15.27;;;;;;;;;;5090360;28;20032;-49
2023/02/10 08:33:30;;;;;;;23.95;14.07;;;;;;;;;;5090898;28;20032;-48
2023/02/10 08:35:57;;;;;;;28.33;15.52;;;;;;;;;;5089697;28;20093;-47
2023/02/10 08:38:23;;;;;;;28.52;16.55;;;;;;;;;;5090316;28;20434;-48
2023/02/10 08:40:56;;;;;;;29.65;16.08;;;;;;;;;;5090364;28;20028;-48
2023/02/10 08:43:22;;;;;;;27.55;15.88;;;;;;;;;;5088737;28;20031;-49
2023/02/10 08:45:48;;;;;;;27.17;15.13;;;;;;;;;;5089268;28;20525;-47
2023/02/10 08:48:14;;;;;;;28.25;15.52;;;;;;;;;;5088112;28;20021;-50
2023/02/10 08:50:40;;;;;;;27.60;16.25;;;;;;;;;;5089386;28;20388;-50
2023/02/10 08:53:06;;;;;;;28.70;16.13;;;;;;;;;;5089078;28;20043;-50
2023/02/10 08:55:32;;;;;;;29.83;15.98;;;;;;;;;;5089835;28;20479;-48
2023/02/10 08:57:58;;;;;;;26.85;15.90;;;;;;;;;;5088902;28;20388;-52
2023/02/10 09:00:24;;;;;;;27.20;16.13;;;;;;;;;;5088532;28;20032;-47
2023/02/10 09:02:51;;;;;;;26.73;15.52;;;;;;;;;;5088845;28;20883;-50
2023/02/10 09:05:18;;;;;;;31.50;16.63;;;;;;;;;;5088773;28;20027;-48
2023/02/10 09:07:45;;;;;;;29.88;16.75;;;;;;;;;;5089010;28;20035;-49
2023/02/10 09:10:11;;;;;;;25.98;15.95;;;;;;;;;;5088434;28;20105;-49
2023/02/10 09:12:38;;;;;;;30.92;16.95;;;;;;;;;;5088634;28;20170;-51
2023/02/10 09:15:04;;;;;;;29.42;16.23;;;;;;;;;;5089110;28;20048;-51
2023/02/10 09:17:31;;;;;;;28.60;15.27;;;;;;;;;;5089358;28;20032;-48
2023/02/10 09:19:57;;;;;;;29.33;16.40;;;;;;;;;;5088734;28;20120;-47
2023/02/10 09:22:23;;;;;;;26.83;15.48;;;;;;;;;;5088438;28;20024;-47
2023/02/10 09:24:52;;;;;;;27.30;15.73;;;;;;;;;;5088634;28;20035;-50
2023/02/10 09:27:18;;;;;;;26.38;15.05;;;;;;;;;;5088449;28;20396;-48
2023/02/10 09:29:44;;;;;;;24.42;13.60;;;;;;;;;;5082503;28;20107;-50
2023/02/10 09:32:11;;;;;;;25.48;14.95;;;;;;;;;;5067977;28;20021;-50
2023/02/10 09:34:39;;;;;;;28.08;15.00;;;;;;;;;;5068280;28;20035;-49
2023/02/10 09:37:06;;;;;;;28.52;15.63;;;;;;;;;;5067352;28;20021;-48
2023/02/10 09:39:32;;;;;;;24.08;14.60;;;;;;;;;;5086098;28;20038;-48
2023/02/10 09:41:58;;;;;;;29.70;16.67;;;;;;;;;;5088252;28;20081;-48
2023/02/10 09:44:30;;;;;;;33.65;16.98;;;;;;;;;;5073071;28;21189;-48
2023/02/10 09:47:14;;;;;;;28.55;16.02;;;;;;;;;;5085489;28;20028;-50
2023/02/10 09:49:59;;;;;;;28.45;16.15;;;;;;;;;;5083655;28;20072;-52
2023/02/10 09:52:30;;;;;;;28.60;16.48;;;;;;;;;;5083311;28;20032;-49
2023/02/10 09:54:56;;;;;;;28.27;16.27;;;;;;;;;;5082126;28;20027;-48
2023/02/10 09:57:27;;;;;;;32.17;17.33;;;;;;;;;;5086845;28;20663;-50
2023/02/10 09:59:54;;;;;;;32.28;18.40;;;;;;;;;;5087459;28;20047;-48
2023/02/10 10:02:35;;;;;;;32.63;18.35;;;;;;;;;;5086746;28;20068;-48
2023/02/10 10:05:05;;;;;;;30.17;16.48;;;;;;;;;;5085958;28;20690;-50
2023/02/10 10:07:38;;;;;;;29.40;16.30;;;;;;;;;;5087086;28;20020;-50
2023/02/10 10:10:05;;;;;;;26.05;15.30;;;;;;;;;;5076659;28;20025;-48
2023/02/10 10:12:31;;;;;;;26.67;14.77;;;;;;;;;;5085281;28;20088;-50
2023/02/10 10:14:58;;;;;;;25.38;15.18;;;;;;;;;;5074345;28;20046;-51
2023/02/10 10:17:48;;;;;;;25.05;14.98;;;;;;;;;;5082985;28;20474;-48
2023/02/10 10:20:40;;;;;;;25.35;15.07;;;;;;;;;;5087904;28;20028;-49
2023/02/10 10:23:12;;;;;;;25.42;15.15;;;;;;;;;;5083589;28;20380;-51
2023/02/10 10:25:39;;;;;;;24.42;14.85;;;;;;;;;;5086332;28;20016;-50
2023/02/10 10:28:25;;;;;;;26.38;15.70;;;;;;;;;;5077328;28;20044;-49
2023/02/10 10:30:55;;;;;;;23.25;14.10;;;;;;;;;;5086913;28;20024;-48
2023/02/10 10:33:24;;;;;;;25.60;14.02;;;;;;;;;;5085806;28;20530;-50
2023/02/10 10:35:50;;;;;;;22.35;13.77;;;;;;;;;;5086911;28;20020;-49
2023/02/10 10:38:21;;;;;;;23.00;13.55;;;;;;;;;;5064566;28;20037;-49
2023/02/10 10:40:49;;;;;;;23.75;12.75;;;;;;;;;;5086793;28;20032;-51
2023/02/10 10:43:19;;;;;;;23.02;13.73;;;;;;;;;;5082689;28;20050;-47
2023/02/10 10:45:48;;;;;;;25.50;14.75;;;;;;;;;;5087874;28;20024;-50
2023/02/10 10:48:17;;;;;;;22.45;13.32;;;;;;;;;;5083776;28;20054;-48
2023/02/10 10:50:43;;;;;;;24.55;14.43;;;;;;;;;;5079414;28;20051;-49
2023/02/10 10:53:15;;;;;;;25.45;14.15;;;;;;;;;;5086083;28;20066;-48
2023/02/10 10:55:44;;;;;;;22.25;13.25;;;;;;;;;;5087199;28;20551;-48
2023/02/10 10:58:12;;;;;;;21.17;12.50;;;;;;;;;;5076054;28;20115;-50
2023/02/10 11:00:49;;;;;;;20.45;12.52;;;;;;;;;;5089936;28;20024;-50
2023/02/10 11:03:16;;;;;;;20.58;12.05;;;;;;;;;;5107674;28;20019;-48
2023/02/10 11:05:42;;;;;;;21.08;12.70;;;;;;;;;;5103288;28;20046;-49
2023/02/10 11:08:23;;;;;;;22.75;13.73;;;;;;;;;;5107290;28;20106;-49
2023/02/10 11:10:55;;;;;;;22.65;14.25;;;;;;;;;;5098199;28;20012;-47
2023/02/10 11:13:23;;;;;;;24.17;15.20;;;;;;;;;;5079047;28;20035;-50
2023/02/10 11:15:50;;;;;;;20.98;12.57;;;;;;;;;;5086946;28;20032;-48
2023/02/10 11:18:18;;;;;;;22.75;13.85;;;;;;;;;;5085691;28;20039;-50
2023/02/10 11:20:52;;;;;;;21.48;12.75;;;;;;;;;;5086904;28;20020;-48
2023/02/10 11:23:18;;;;;;;20.25;12.45;;;;;;;;;;5087371;28;20028;-46
2023/02/10 11:25:55;;;;;;;20.90;12.38;;;;;;;;;;5086996;28;20364;-47
2023/02/10 11:28:24;;;;;;;20.67;12.40;;;;;;;;;;5086434;28;20099;-47
2023/02/10 11:31:10;;;;;;;21.42;13.35;;;;;;;;;;5086720;28;20020;-48
2023/02/10 11:33:36;;;;;;;27.25;15.80;;;;;;;;;;5063455;28;20054;-50
2023/02/10 11:36:05;;;;;;;27.05;15.55;;;;;;;;;;5086716;28;20050;-49
2023/02/10 11:38:32;;;;;;;24.23;14.23;;;;;;;;;;5085756;28;20118;-46
2023/02/10 11:40:58;;;;;;;19.50;12.55;;;;;;;;;;5085501;28;20040;-48
2023/02/10 11:43:37;;;;;;;19.48;12.25;;;;;;;;;;5086303;28;20091;-49
2023/02/10 11:46:05;;;;;;;23.70;14.70;;;;;;;;;;5087034;28;20020;-49
2023/02/10 11:48:31;;;;;;;24.60;13.98;;;;;;;;;;5086642;28;20028;-49
2023/02/10 11:51:02;;;;;;;23.52;14.20;;;;;;;;;;5086972;28;20454;-48
2023/02/10 11:53:30;;;;;;;27.73;16.42;;;;;;;;;;5086882;28;20028;-47
2023/02/10 11:56:05;;;;;;;26.08;14.40;;;;;;;;;;5086316;28;20042;-50
2023/02/10 11:58:58;;;;;;;22.88;13.32;;;;;;;;;;5086799;28;20102;-49
2023/02/10 12:01:24;;;;;;;23.60;13.32;;;;;;;;;;5089147;28;20035;-47
2023/02/10 12:04:09;;;;;;;20.98;12.57;;;;;;;;;;5082150;28;20039;-48
2023/02/10 12:06:35;;;;;;;20.08;11.93;;;;;;;;;;5071489;28;20036;-49
2023/02/10 12:09:04;;;;;;;21.33;12.25;;;;;;;;;;5091434;28;20089;-49
2023/02/10 12:11:33;;;;;;;25.63;15.02;;;;;;;;;;5082892;28;20017;-49
2023/02/10 12:14:07;;;;;;;34.83;19.20;;;;;;;;;;5077861;28;20043;-49
2023/02/10 12:16:56;;;;;;;35.05;19.25;;;;;;;;;;5082515;28;20028;-51
2023/02/10 12:19:48;;;;;;;29.45;16.38;;;;;;;;;;5057617;28;20122;-48
2023/02/10 12:22:23;;;;;;;24.52;14.25;;;;;;;;;;5061388;28;20032;-50
2023/02/10 12:24:49;;;;;;;23.08;13.55;;;;;;;;;;5089307;28;20024;-49
2023/02/10 12:27:16;;;;;;;22.67;12.32;;;;;;;;;;5089197;28;20138;-49
2023/02/10 12:30:09;;;;;;;21.17;12.65;;;;;;;;;;5089210;28;20488;-47
2023/02/10 12:32:44;;;;;;;23.15;13.77;;;;;;;;;;5086067;28;20028;-47
2023/02/10 12:35:13;;;;;;;23.00;13.38;;;;;;;;;;5089697;28;20417;-48
2023/02/10 12:37:51;;;;;;;19.50;12.18;;;;;;;;;;5089055;28;20024;-50
2023/02/10 12:40:20;;;;;;;18.02;11.00;;;;;;;;;;5089073;28;20051;-48
2023/02/10 12:42:59;;;;;;;20.27;11.85;;;;;;;;;;5088860;28;20499;-49
2023/02/10 12:45:25;;;;;;;22.33;12.93;;;;;;;;;;5089524;28;20020;-51
2023/02/10 12:48:06;;;;;;;17.55;10.85;;;;;;;;;;5087855;28;20066;-49
2023/02/10 12:50:48;;;;;;;15.90;9.65;;;;;;;;;;5087430;28;20028;-50
2023/02/10 12:53:14;;;;;;;15.13;9.70;;;;;;;;;;5087403;28;20107;-50
2023/02/10 12:55:44;;;;;;;18.42;11.88;;;;;;;;;;5086932;28;20107;-50
2023/02/10 12:58:19;;;;;;;18.70;11.13;;;;;;;;;;5068855;28;20051;-50
2023/02/10 13:01:01;;;;;;;17.15;10.52;;;;;;;;;;5068702;28;20056;-51
2023/02/10 13:03:34;;;;;;;16.00;9.63;;;;;;;;;;5067602;28;20028;-51
2023/02/10 13:06:01;;;;;;;13.98;9.48;;;;;;;;;;5067586;28;20100;-49
2023/02/10 13:08:30;;;;;;;12.82;8.55;;;;;;;;;;5067763;28;20075;-49
2023/02/10 13:11:01;;;;;;;13.90;8.45;;;;;;;;;;5066623;28;20024;-52
2023/02/10 13:13:31;;;;;;;13.13;8.27;;;;;;;;;;5067674;28;20541;-48
2023/02/10 13:15:57;;;;;;;10.98;7.10;;;;;;;;;;5067607;28;20029;-52
2023/02/10 13:18:24;;;;;;;12.35;7.95;;;;;;;;;;5082447;28;20043;-48
2023/02/10 13:20:58;;;;;;;13.95;8.95;;;;;;;;;;5066931;28;20084;-49
2023/02/10 13:23:24;;;;;;;14.23;9.38;;;;;;;;;;5067116;28;20029;-49
2023/02/10 13:25:50;;;;;;;16.20;9.95;;;;;;;;;;5081810;28;20526;-51
2023/02/10 13:28:19;;;;;;;19.15;11.65;;;;;;;;;;5066654;28;20028;-52
2023/02/10 13:31:04;;;;;;;15.35;9.90;;;;;;;;;;5066633;28;20400;-51
2023/02/10 13:33:33;;;;;;;13.73;8.45;;;;;;;;;;5067827;28;20021;-49
2023/02/10 13:35:59;;;;;;;12.77;8.27;;;;;;;;;;5067207;28;20511;-51
2023/02/10 13:38:31;;;;;;;14.07;9.32;;;;;;;;;;5066418;28;20222;-53
2023/02/10 13:41:45;;;;;;;13.85;8.43;;;;;;;;;;5066903;28;20511;-51
2023/02/10 13:43:45;;;;;;;12.23;7.95;;;;;;;;;;5062190;28;20032;-49
2023/02/10 13:46:22;;;;;;;12.35;8.13;;;;;;;;;;5066187;28;20029;-48
2023/02/10 13:48:53;;;;;;;13.52;8.40;;;;;;;;;;5066593;28;20028;-49
2023/02/10 13:51:28;;;;;;;13.15;8.27;;;;;;;;;;5066319;28;20028;-49
2023/02/10 13:53:54;;;;;;;14.07;8.50;;;;;;;;;;5066252;28;20028;-50
2023/02/10 13:56:21;;;;;;;13.40;8.43;;;;;;;;;;5066051;28;20103;-49
2023/02/10 13:58:47;;;;;;;11.77;7.57;;;;;;;;;;5066120;28;20032;-49
2023/02/10 14:01:49;;;;;;;16.00;9.38;;;;;;;;;;5066103;28;20028;-48
2023/02/10 14:04:17;;;;;;;16.90;10.20;;;;;;;;;;5003698;28;20504;-50
2023/02/10 14:06:45;;;;;;;14.32;9.93;;;;;;;;;;5049451;28;20064;-49
2023/02/10 14:09:29;;;;;;;14.80;9.27;;;;;;;;;;5065511;28;20420;-50
2023/02/10 14:11:55;;;;;;;14.27;9.85;;;;;;;;;;5074033;28;20283;-49
2023/02/10 14:14:30;;;;;;;13.25;8.45;;;;;;;;;;5086181;28;20035;-50
2023/02/10 14:17:15;;;;;;;13.05;8.77;;;;;;;;;;5086437;28;20031;-51
2023/02/10 14:19:42;;;;;;;13.05;8.23;;;;;;;;;;5086182;28;20031;-52
2023/02/10 14:22:21;;;;;;;12.65;8.40;;;;;;;;;;5085947;28;20055;-52
2023/02/10 14:24:47;;;;;;;13.10;8.80;;;;;;;;;;5086022;28;20032;-50
2023/02/10 14:27:15;;;;;;;13.57;8.30;;;;;;;;;;5085790;28;20024;-52
2023/02/10 14:29:45;;;;;;;12.43;8.65;;;;;;;;;;5085744;28;20028;-52
2023/02/10 14:32:14;;;;;;;13.45;7.95;;;;;;;;;;5085566;28;20024;-51
2023/02/10 14:34:41;;;;;;;13.15;8.88;;;;;;;;;;5085941;28;20543;-49
2023/02/10 14:37:17;;;;;;;14.02;8.25;;;;;;;;;;5085678;28;20072;-52
2023/02/10 14:40:09;;;;;;;15.07;9.18;;;;;;;;;;5085472;28;20036;-51
2023/02/10 14:42:35;;;;;;;13.68;8.60;;;;;;;;;;5082587;28;20120;-52
2023/02/10 14:45:02;;;;;;;14.52;8.95;;;;;;;;;;5086357;28;20112;-53
2023/02/10 14:47:31;;;;;;;19.85;11.68;;;;;;;;;;5086174;28;20235;-48
2023/02/10 14:49:57;;;;;;;15.18;10.35;;;;;;;;;;5085667;28;20028;-51
2023/02/10 14:52:33;;;;;;;17.80;10.13;;;;;;;;;;5085358;28;20121;-49
2023/02/10 14:54:59;;;;;;;13.38;8.75;;;;;;;;;;5085868;28;20587;-51
2023/02/10 14:57:26;;;;;;;14.52;9.30;;;;;;;;;;5085368;28;20019;-48
2023/02/10 14:59:53;;;;;;;16.50;10.88;;;;;;;;;;5085547;28;20456;-51
2023/02/10 15:02:21;;;;;;;15.75;10.20;;;;;;;;;;5085316;28;20495;-51
2023/02/10 15:04:48;;;;;;;14.98;9.50;;;;;;;;;;5085354;28;20046;-53
2023/02/10 15:07:18;;;;;;;14.55;8.88;;;;;;;;;;5085681;28;20016;-51
2023/02/10 15:09:44;;;;;;;12.25;8.48;;;;;;;;;;5085137;28;20456;-51
2023/02/10 15:12:19;;;;;;;12.55;8.13;;;;;;;;;;5084860;28;20032;-52
2023/02/10 15:14:57;;;;;;;14.18;8.32;;;;;;;;;;5085353;28;20063;-51
2023/02/10 15:17:29;;;;;;;11.52;7.85;;;;;;;;;;5085158;28;20047;-52
2023/02/10 15:20:00;;;;;;;12.93;8.30;;;;;;;;;;5085077;28;20035;-49
2023/02/10 15:22:40;;;;;;;11.60;7.95;;;;;;;;;;5084904;28;20399;-52
2023/02/10 15:25:24;;;;;;;13.98;8.85;;;;;;;;;;5084934;28;20028;-52
2023/02/10 15:27:50;;;;;;;11.85;8.40;;;;;;;;;;5085205;28;20036;-49
2023/02/10 15:30:22;;;;;;;14.05;8.60;;;;;;;;;;5084976;28;20095;-52
2023/02/10 15:32:49;;;;;;;13.98;8.18;;;;;;;;;;5085115;28;20070;-52
2023/02/10 15:35:15;;;;;;;13.98;8.82;;;;;;;;;;5086637;28;20020;-51
2023/02/10 15:37:41;;;;;;;13.80;8.68;;;;;;;;;;5088750;28;20077;-49
2023/02/10 15:40:21;;;;;;;12.32;8.50;;;;;;;;;;5089154;28;20107;-50
2023/02/10 15:43:04;;;;;;;13.50;9.70;;;;;;;;;;5088589;28;20039;-50
2023/02/10 15:45:30;;;;;;;12.85;8.40;;;;;;;;;;5089515;28;20020;-51
2023/02/10 15:48:06;;;;;;;13.93;9.38;;;;;;;;;;5089062;28;20078;-52
2023/02/10 15:50:33;;;;;;;12.43;8.35;;;;;;;;;;5090737;28;20090;-50
2023/02/10 15:53:00;;;;;;;12.32;8.48;;;;;;;;;;5089122;28;20130;-48
2023/02/10 15:55:35;;;;;;;11.82;8.18;;;;;;;;;;5088663;28;20028;-50
2023/02/10 15:58:04;;;;;;;13.18;8.63;;;;;;;;;;5089063;28;20059;-50
2023/02/10 16:00:31;;;;;;;14.80;9.32;;;;;;;;;;5088757;28;20064;-50
2023/02/10 16:02:57;;;;;;;10.80;7.78;;;;;;;;;;5089833;28;20521;-52
2023/02/10 16:05:24;;;;;;;12.45;7.88;;;;;;;;;;5096118;28;20020;-50
2023/02/10 16:07:51;;;;;;;12.13;7.57;;;;;;;;;;5088048;28;20032;-52
2023/02/10 16:10:19;;;;;;;11.52;8.52;;;;;;;;;;5085055;28;20381;-52
2023/02/10 16:12:45;;;;;;;12.07;8.88;;;;;;;;;;5088157;28;20028;-51
2023/02/10 16:15:15;;;;;;;13.43;8.95;;;;;;;;;;5088078;28;20085;-52
2023/02/10 16:17:42;;;;;;;12.43;8.30;;;;;;;;;;5088452;28;20020;-50
2023/02/10 16:20:14;;;;;;;13.02;8.82;;;;;;;;;;5088137;28;20484;-50
2023/02/10 16:22:41;;;;;;;10.88;8.13;;;;;;;;;;5085829;28;20499;-53
2023/02/10 16:25:07;;;;;;;10.20;7.97;;;;;;;;;;5086971;28;20020;-52
2023/02/10 16:27:33;;;;;;;12.80;9.15;;;;;;;;;;5068981;28;20083;-54
2023/02/10 16:30:00;;;;;;;11.05;8.57;;;;;;;;;;5087461;28;20031;-52
2023/02/10 16:32:27;;;;;;;13.88;9.63;;;;;;;;;;5086584;28;20092;-53
2023/02/10 16:34:53;;;;;;;13.88;9.40;;;;;;;;;;5067943;28;20059;-51
2023/02/10 16:37:20;;;;;;;14.75;10.20;;;;;;;;;;5086743;28;20060;-52
2023/02/10 16:39:46;;;;;;;15.25;10.13;;;;;;;;;;5086101;28;20036;-53
2023/02/10 16:42:13;;;;;;;15.43;10.18;;;;;;;;;;5086440;28;20107;-53
2023/02/10 16:44:39;;;;;;;17.98;10.25;;;;;;;;;;5086725;28;20441;-51
2023/02/10 16:47:05;;;;;;;15.95;10.10;;;;;;;;;;5063265;28;20100;-51
2023/02/10 16:49:31;;;;;;;14.93;10.45;;;;;;;;;;5085252;28;20031;-49
2023/02/10 16:51:57;;;;;;;15.45;10.18;;;;;;;;;;5085510;28;20559;-50
2023/02/10 16:54:23;;;;;;;14.60;10.10;;;;;;;;;;5086605;28;20031;-52
2023/02/10 16:56:50;;;;;;;16.50;10.63;;;;;;;;;;5086249;28;20039;-53
2023/02/10 16:59:17;;;;;;;15.45;9.85;;;;;;;;;;5086268;28;20048;-52
2023/02/10 17:01:45;;;;;;;15.65;10.45;;;;;;;;;;5086503;28;20035;-51
2023/02/10 17:04:12;;;;;;;17.83;10.93;;;;;;;;;;5086121;28;20039;-52
2023/02/10 17:06:48;;;;;;;20.50;11.55;;;;;;;;;;5068014;28;20094;-53
2023/02/10 17:09:16;;;;;;;21.80;13.10;;;;;;;;;;5086041;28;20065;-53
2023/02/10 17:11:42;;;;;;;17.77;10.82;;;;;;;;;;5072875;28;20041;-52
2023/02/10 17:14:08;;;;;;;19.58;11.68;;;;;;;;;;5047356;28;20571;-51
2023/02/10 17:16:35;;;;;;;19.63;11.20;;;;;;;;;;5065891;28;20095;-52
2023/02/10 17:19:02;;;;;;;19.35;12.07;;;;;;;;;;5066158;28;20502;-50
2023/02/10 17:21:29;;;;;;;20.85;12.82;;;;;;;;;;5065972;28;20411;-51
2023/02/10 17:23:55;;;;;;;19.23;11.80;;;;;;;;;;5065450;28;20161;-52
2023/02/10 17:26:22;;;;;;;21.75;13.20;;;;;;;;;;5073209;28;20032;-52
2023/02/10 17:28:49;;;;;;;20.98;12.73;;;;;;;;;;5085129;28;20031;-49
2023/02/10 17:31:16;;;;;;;19.92;12.88;;;;;;;;;;5085367;28;20054;-50
2023/02/10 17:33:48;;;;;;;19.65;11.98;;;;;;;;;;5085339;28;20105;-50
2023/02/10 17:36:14;;;;;;;19.05;12.30;;;;;;;;;;5067866;28;20546;-49
2023/02/10 17:38:50;;;;;;;19.63;11.85;;;;;;;;;;5067268;28;20028;-52
2023/02/10 17:41:21;;;;;;;18.58;12.18;;;;;;;;;;5085661;28;20441;-49
2023/02/10 17:43:48;;;;;;;19.17;11.80;;;;;;;;;;5085249;28;20031;-51
2023/02/10 17:46:16;;;;;;;19.02;10.65;;;;;;;;;;5085371;28;20115;-51
2023/02/10 17:48:43;;;;;;;19.52;11.20;;;;;;;;;;5067164;28;20030;-48
2023/02/10 17:51:12;;;;;;;18.60;10.95;;;;;;;;;;5084848;28;20020;-50
2023/02/10 17:53:38;;;;;;;15.77;10.02;;;;;;;;;;5085377;28;20047;-50
2023/02/10 17:56:04;;;;;;;18.60;11.38;;;;;;;;;;5084952;28;20074;-52
2023/02/10 17:58:31;;;;;;;20.38;12.55;;;;;;;;;;5085351;28;20029;-51
2023/02/10 18:00:58;;;;;;;25.45;15.23;;;;;;;;;;5067201;28;20111;-50
2023/02/10 18:03:24;;;;;;;26.42;15.88;;;;;;;;;;5077321;28;20441;-54
2023/02/10 18:05:54;;;;;;;22.20;13.57;;;;;;;;;;5075614;28;20021;-53
2023/02/10 18:08:20;;;;;;;21.83;13.35;;;;;;;;;;5064870;28;20053;-50
2023/02/10 18:10:47;;;;;;;20.75;13.00;;;;;;;;;;5075025;28;20032;-52
2023/02/10 18:13:14;;;;;;;18.90;11.13;;;;;;;;;;5084643;28;20128;-51
2023/02/10 18:15:41;;;;;;;16.75;10.27;;;;;;;;;;5084129;28;20457;-49
2023/02/10 18:18:08;;;;;;;18.40;10.55;;;;;;;;;;5084404;28;20028;-50
2023/02/10 18:20:35;;;;;;;19.10;10.60;;;;;;;;;;5084740;28;20059;-50
2023/02/10 18:23:03;;;;;;;17.13;10.48;;;;;;;;;;5083418;28;20589;-51
2023/02/10 18:25:30;;;;;;;17.40;10.45;;;;;;;;;;5084011;28;20027;-49
2023/02/10 18:27:56;;;;;;;15.95;9.40;;;;;;;;;;5080023;28;20091;-53
2023/02/10 18:30:22;;;;;;;18.20;10.02;;;;;;;;;;5081370;28;20028;-52
2023/02/10 18:32:48;;;;;;;15.90;9.75;;;;;;;;;;5064835;28;20050;-52
2023/02/10 18:35:14;;;;;;;17.17;10.43;;;;;;;;;;5080775;28;20130;-51
2023/02/10 18:37:40;;;;;;;17.92;9.90;;;;;;;;;;5084329;28;20110;-50
2023/02/10 18:40:07;;;;;;;15.32;9.30;;;;;;;;;;5066315;28;20575;-51
2023/02/10 18:42:33;;;;;;;16.45;10.38;;;;;;;;;;5081093;28;20430;-50
2023/02/10 18:45:00;;;;;;;15.50;9.70;;;;;;;;;;5084041;28;20036;-48
2023/02/10 18:47:26;;;;;;;18.98;11.38;;;;;;;;;;5086804;28;20038;-48
2023/02/10 18:49:52;;;;;;;18.00;10.73;;;;;;;;;;5089490;28;20483;-49
2023/02/10 18:52:19;;;;;;;17.33;10.30;;;;;;;;;;5066319;28;20012;-52
2023/02/10 18:54:45;;;;;;;17.95;10.50;;;;;;;;;;5085349;28;20028;-52
2023/02/10 18:57:12;;;;;;;19.00;11.38;;;;;;;;;;5085796;28;20036;-52
2023/02/10 18:59:38;;;;;;;18.15;11.07;;;;;;;;;;5085114;28;20031;-48
2023/02/10 19:02:04;;;;;;;21.92;12.70;;;;;;;;;;5085018;28;20458;-53
2023/02/10 19:04:30;;;;;;;20.70;11.43;;;;;;;;;;5084150;28;20499;-49
2023/02/10 19:06:56;;;;;;;21.25;12.10;;;;;;;;;;5083620;28;20086;-52
2023/02/10 19:09:23;;;;;;;20.83;11.73;;;;;;;;;;5084805;28;20047;-51
2023/02/10 19:11:49;;;;;;;18.48;11.48;;;;;;;;;;5065469;28;20028;-49
2023/02/10 19:14:16;;;;;;;20.35;11.10;;;;;;;;;;5080312;28;20164;-49
2023/02/10 19:16:42;;;;;;;21.08;12.20;;;;;;;;;;5080898;28;20032;-48
2023/02/10 19:19:09;;;;;;;25.40;13.38;;;;;;;;;;5082668;28;20038;-49
2023/02/10 19:21:36;;;;;;;25.60;12.93;;;;;;;;;;5082544;28;20117;-49
2023/02/10 19:24:02;;;;;;;25.02;12.43;;;;;;;;;;5083090;28;20032;-49
2023/02/10 19:26:28;;;;;;;25.80;13.25;;;;;;;;;;5079028;28;20016;-49
2023/02/10 19:28:55;;;;;;;27.00;14.15;;;;;;;;;;5083688;28;20453;-52
2023/02/10 19:31:22;;;;;;;31.67;15.05;;;;;;;;;;5083359;28;20024;-50
2023/02/10 19:33:50;;;;;;;34.05;16.33;;;;;;;;;;5082437;28;20032;-53
2023/02/10 19:36:17;;;;;;;38.35;18.20;;;;;;;;;;5063871;28;20039;-52